sensor_id;sensor_type;location;lat;lon;timestamp;P1;durP1;ratioP1;P2;durP2;ratioP2
23952;SDS011;12163;49.316;6.092;2022-11-15T00:00:47;10.90;;;4.05;;
23952;SDS011;12163;49.316;6.092;2022-11-15T00:03:14;6.75;;;3.55;;
23952;SDS011;12163;49.316;6.092;2022-11-15T00:05:44;5.97;;;3.72;;
23952;SDS011;12163;49.316;6.092;2022-11-15T00:08:11;5.57;;;3.50;;
23952;SDS011;12163;49.316;6.092;2022-11-15T00:10:38;6.38;;;2.85;;
23952;SDS011;12163;49.316;6.092;2022-11-15T00:13:09;3.42;;;2.38;;
23952;SDS011;12163;49.316;6.092;2022-11-15T00:15:39;6.32;;;2.75;;
23952;SDS011;12163;49.316;6.092;2022-11-15T00:18:12;4.35;;;2.38;;
23952;SDS011;12163;49.316;6.092;2022-11-15T00:23:06;5.72;;;2.45;;
23952;SDS011;12163;49.316;6.092;2022-11-15T00:25:33;4.75;;;2.30;;
23952;SDS011;12163;49.316;6.092;2022-11-15T00:28:00;5.25;;;2.42;;
23952;SDS011;12163;49.316;6.092;2022-11-15T00:30:27;3.80;;;2.40;;
23952;SDS011;12163;49.316;6.092;2022-11-15T00:32:54;2.72;;;1.85;;
23952;SDS011;12163;49.316;6.092;2022-11-15T00:35:21;3.60;;;2.10;;
23952;SDS011;12163;49.316;6.092;2022-11-15T00:37:48;6.03;;;2.35;;
23952;SDS011;12163;49.316;6.092;2022-11-15T00:40:14;2.97;;;1.83;;
23952;SDS011;12163;49.316;6.092;2022-11-15T00:42:41;3.00;;;2.20;;
23952;SDS011;12163;49.316;6.092;2022-11-15T00:45:08;4.75;;;1.83;;
23952;SDS011;12163;49.316;6.092;2022-11-15T00:47:35;3.75;;;2.20;;
23952;SDS011;12163;49.316;6.092;2022-11-15T00:50:02;3.00;;;2.00;;
23952;SDS011;12163;49.316;6.092;2022-11-15T00:52:29;3.35;;;2.03;;
23952;SDS011;12163;49.316;6.092;2022-11-15T00:54:55;4.78;;;2.13;;
23952;SDS011;12163;49.316;6.092;2022-11-15T00:57:22;3.83;;;2.22;;
23952;SDS011;12163;49.316;6.092;2022-11-15T00:59:48;6.38;;;2.45;;
23952;SDS011;12163;49.316;6.092;2022-11-15T01:02:15;4.07;;;2.25;;
23952;SDS011;12163;49.316;6.092;2022-11-15T01:04:41;4.47;;;2.20;;
23952;SDS011;12163;49.316;6.092;2022-11-15T01:07:08;3.63;;;2.63;;
23952;SDS011;12163;49.316;6.092;2022-11-15T01:09:34;4.85;;;2.67;;
23952;SDS011;12163;49.316;6.092;2022-11-15T01:12:01;3.35;;;2.70;;
23952;SDS011;12163;49.316;6.092;2022-11-15T01:14:27;4.38;;;2.75;;
23952;SDS011;12163;49.316;6.092;2022-11-15T01:16:54;5.65;;;3.17;;
23952;SDS011;12163;49.316;6.092;2022-11-15T01:19:21;5.38;;;3.00;;
23952;SDS011;12163;49.316;6.092;2022-11-15T01:21:50;6.15;;;3.15;;
23952;SDS011;12163;49.316;6.092;2022-11-15T01:24:17;2.78;;;2.35;;
23952;SDS011;12163;49.316;6.092;2022-11-15T01:26:44;5.15;;;3.00;;
23952;SDS011;12163;49.316;6.092;2022-11-15T01:29:10;4.20;;;2.88;;
23952;SDS011;12163;49.316;6.092;2022-11-15T01:31:37;6.68;;;3.20;;
23952;SDS011;12163;49.316;6.092;2022-11-15T01:34:04;8.82;;;2.80;;
23952;SDS011;12163;49.316;6.092;2022-11-15T01:36:30;5.03;;;2.72;;
23952;SDS011;12163;49.316;6.092;2022-11-15T01:38:57;4.05;;;2.55;;
23952;SDS011;12163;49.316;6.092;2022-11-15T01:41:26;6.32;;;2.50;;
23952;SDS011;12163;49.316;6.092;2022-11-15T01:43:55;5.47;;;2.72;;
23952;SDS011;12163;49.316;6.092;2022-11-15T01:46:42;5.93;;;2.40;;
23952;SDS011;12163;49.316;6.092;2022-11-15T01:49:17;2.50;;;2.10;;
23952;SDS011;12163;49.316;6.092;2022-11-15T01:51:45;3.22;;;2.22;;
23952;SDS011;12163;49.316;6.092;2022-11-15T01:54:13;4.25;;;2.40;;
23952;SDS011;12163;49.316;6.092;2022-11-15T01:56:49;4.50;;;2.33;;
23952;SDS011;12163;49.316;6.092;2022-11-15T01:59:19;7.28;;;2.30;;
23952;SDS011;12163;49.316;6.092;2022-11-15T02:01:46;9.15;;;2.33;;
23952;SDS011;12163;49.316;6.092;2022-11-15T02:04:14;4.95;;;2.22;;
23952;SDS011;12163;49.316;6.092;2022-11-15T02:09:13;2.85;;;2.15;;
23952;SDS011;12163;49.316;6.092;2022-11-15T02:11:40;11.68;;;2.30;;
23952;SDS011;12163;49.316;6.092;2022-11-15T02:14:07;4.72;;;2.38;;
23952;SDS011;12163;49.316;6.092;2022-11-15T02:32:49;4.60;;;2.10;;
23952;SDS011;12163;49.316;6.092;2022-11-15T02:35:28;5.78;;;2.15;;
23952;SDS011;12163;49.316;6.092;2022-11-15T02:40:34;5.85;;;2.20;;
23952;SDS011;12163;49.316;6.092;2022-11-15T02:43:24;4.28;;;2.10;;
23952;SDS011;12163;49.316;6.092;2022-11-15T02:46:58;4.50;;;2.00;;
23952;SDS011;12163;49.316;6.092;2022-11-15T02:49:31;4.38;;;2.10;;
23952;SDS011;12163;49.316;6.092;2022-11-15T02:52:00;5.25;;;2.13;;
23952;SDS011;12163;49.316;6.092;2022-11-15T02:54:29;5.65;;;2.40;;
23952;SDS011;12163;49.316;6.092;2022-11-15T02:57:04;2.95;;;2.00;;
23952;SDS011;12163;49.316;6.092;2022-11-15T03:16:11;8.15;;;2.95;;
23952;SDS011;12163;49.316;6.092;2022-11-15T03:18:45;13.30;;;2.97;;
23952;SDS011;12163;49.316;6.092;2022-11-15T03:21:18;8.98;;;3.67;;
23952;SDS011;12163;49.316;6.092;2022-11-15T03:23:48;7.03;;;2.97;;
23952;SDS011;12163;49.316;6.092;2022-11-15T03:26:17;8.43;;;3.60;;
23952;SDS011;12163;49.316;6.092;2022-11-15T03:28:53;8.88;;;4.03;;
23952;SDS011;12163;49.316;6.092;2022-11-15T03:31:23;10.95;;;3.60;;
23952;SDS011;12163;49.316;6.092;2022-11-15T03:34:32;10.68;;;3.20;;
23952;SDS011;12163;49.316;6.092;2022-11-15T03:37:06;8.65;;;3.63;;
23952;SDS011;12163;49.316;6.092;2022-11-15T03:39:34;11.32;;;3.65;;
23952;SDS011;12163;49.316;6.092;2022-11-15T03:49:40;7.10;;;3.10;;
23952;SDS011;12163;49.316;6.092;2022-11-15T03:54:46;9.23;;;3.03;;
23952;SDS011;12163;49.316;6.092;2022-11-15T03:57:14;6.50;;;2.55;;
23952;SDS011;12163;49.316;6.092;2022-11-15T03:59:40;4.85;;;2.72;;
23952;SDS011;12163;49.316;6.092;2022-11-15T04:02:07;7.90;;;2.65;;
23952;SDS011;12163;49.316;6.092;2022-11-15T04:04:33;11.40;;;4.25;;
23952;SDS011;12163;49.316;6.092;2022-11-15T04:07:00;6.85;;;3.20;;
23952;SDS011;12163;49.316;6.092;2022-11-15T04:09:27;11.93;;;3.30;;
23952;SDS011;12163;49.316;6.092;2022-11-15T04:11:53;12.15;;;3.25;;
23952;SDS011;12163;49.316;6.092;2022-11-15T04:14:20;6.38;;;2.50;;
23952;SDS011;12163;49.316;6.092;2022-11-15T04:16:46;6.20;;;3.03;;
23952;SDS011;12163;49.316;6.092;2022-11-15T04:19:13;4.88;;;2.97;;
23952;SDS011;12163;49.316;6.092;2022-11-15T04:22:08;5.93;;;2.80;;
23952;SDS011;12163;49.316;6.092;2022-11-15T04:24:53;13.60;;;3.50;;
23952;SDS011;12163;49.316;6.092;2022-11-15T04:27:20;7.50;;;2.95;;
23952;SDS011;12163;49.316;6.092;2022-11-15T04:29:46;7.30;;;3.00;;
23952;SDS011;12163;49.316;6.092;2022-11-15T04:32:13;5.90;;;3.03;;
23952;SDS011;12163;49.316;6.092;2022-11-15T04:34:39;7.07;;;2.70;;
23952;SDS011;12163;49.316;6.092;2022-11-15T04:37:06;5.10;;;2.58;;
23952;SDS011;12163;49.316;6.092;2022-11-15T04:39:39;3.65;;;2.20;;
23952;SDS011;12163;49.316;6.092;2022-11-15T04:42:07;8.07;;;2.60;;
23952;SDS011;12163;49.316;6.092;2022-11-15T04:44:34;5.35;;;2.38;;
23952;SDS011;12163;49.316;6.092;2022-11-15T04:47:01;5.75;;;2.10;;
23952;SDS011;12163;49.316;6.092;2022-11-15T04:49:28;4.72;;;2.15;;
23952;SDS011;12163;49.316;6.092;2022-11-15T04:51:55;3.92;;;2.03;;
23952;SDS011;12163;49.316;6.092;2022-11-15T04:54:21;5.45;;;2.00;;
23952;SDS011;12163;49.316;6.092;2022-11-15T04:56:48;4.50;;;1.80;;
23952;SDS011;12163;49.316;6.092;2022-11-15T04:59:15;9.00;;;1.77;;
23952;SDS011;12163;49.316;6.092;2022-11-15T05:01:41;5.28;;;2.00;;
23952;SDS011;12163;49.316;6.092;2022-11-15T05:04:10;7.22;;;1.85;;
23952;SDS011;12163;49.316;6.092;2022-11-15T05:06:46;6.63;;;1.92;;
23952;SDS011;12163;49.316;6.092;2022-11-15T05:09:14;4.65;;;1.48;;
23952;SDS011;12163;49.316;6.092;2022-11-15T05:11:41;6.55;;;1.75;;
23952;SDS011;12163;49.316;6.092;2022-11-15T05:14:08;3.53;;;1.80;;
23952;SDS011;12163;49.316;6.092;2022-11-15T05:16:35;4.93;;;1.50;;
23952;SDS011;12163;49.316;6.092;2022-11-15T05:19:02;2.67;;;1.35;;
23952;SDS011;12163;49.316;6.092;2022-11-15T05:21:29;6.22;;;1.63;;
23952;SDS011;12163;49.316;6.092;2022-11-15T05:23:56;10.20;;;1.98;;
23952;SDS011;12163;49.316;6.092;2022-11-15T05:26:23;9.90;;;2.67;;
23952;SDS011;12163;49.316;6.092;2022-11-15T05:28:56;8.77;;;2.13;;
23952;SDS011;12163;49.316;6.092;2022-11-15T05:31:24;9.82;;;2.00;;
23952;SDS011;12163;49.316;6.092;2022-11-15T05:33:52;16.23;;;3.65;;
23952;SDS011;12163;49.316;6.092;2022-11-15T05:36:37;17.77;;;3.35;;
23952;SDS011;12163;49.316;6.092;2022-11-15T05:39:05;14.45;;;3.22;;
23952;SDS011;12163;49.316;6.092;2022-11-15T05:41:39;22.23;;;3.17;;
23952;SDS011;12163;49.316;6.092;2022-11-15T05:44:11;10.45;;;2.63;;
23952;SDS011;12163;49.316;6.092;2022-11-15T05:46:41;6.80;;;2.60;;
23952;SDS011;12163;49.316;6.092;2022-11-15T05:49:10;10.70;;;3.30;;
23952;SDS011;12163;49.316;6.092;2022-11-15T05:51:39;11.75;;;2.83;;
23952;SDS011;12163;49.316;6.092;2022-11-15T05:54:08;14.15;;;3.03;;
23952;SDS011;12163;49.316;6.092;2022-11-15T05:56:35;13.27;;;2.65;;
23952;SDS011;12163;49.316;6.092;2022-11-15T05:59:02;6.05;;;2.40;;
23952;SDS011;12163;49.316;6.092;2022-11-15T06:01:29;5.45;;;2.30;;
23952;SDS011;12163;49.316;6.092;2022-11-15T06:03:56;6.03;;;2.20;;
23952;SDS011;12163;49.316;6.092;2022-11-15T06:06:22;6.40;;;1.70;;
23952;SDS011;12163;49.316;6.092;2022-11-15T06:08:49;11.18;;;2.33;;
23952;SDS011;12163;49.316;6.092;2022-11-15T06:11:15;11.55;;;2.08;;
23952;SDS011;12163;49.316;6.092;2022-11-15T06:13:42;4.72;;;1.90;;
23952;SDS011;12163;49.316;6.092;2022-11-15T06:16:08;5.90;;;2.00;;
23952;SDS011;12163;49.316;6.092;2022-11-15T06:18:35;6.47;;;1.90;;
23952;SDS011;12163;49.316;6.092;2022-11-15T06:21:02;6.70;;;2.00;;
23952;SDS011;12163;49.316;6.092;2022-11-15T06:23:33;9.43;;;2.40;;
23952;SDS011;12163;49.316;6.092;2022-11-15T06:26:01;5.45;;;1.60;;
23952;SDS011;12163;49.316;6.092;2022-11-15T06:28:29;7.82;;;1.65;;
23952;SDS011;12163;49.316;6.092;2022-11-15T06:31:04;8.65;;;2.00;;
23952;SDS011;12163;49.316;6.092;2022-11-15T06:33:31;10.20;;;1.92;;
23952;SDS011;12163;49.316;6.092;2022-11-15T06:36:00;8.52;;;1.92;;
23952;SDS011;12163;49.316;6.092;2022-11-15T06:38:28;10.75;;;2.05;;
23952;SDS011;12163;49.316;6.092;2022-11-15T06:40:54;18.08;;;3.13;;
23952;SDS011;12163;49.316;6.092;2022-11-15T06:43:21;8.57;;;2.42;;
23952;SDS011;12163;49.316;6.092;2022-11-15T06:45:47;9.45;;;2.67;;
23952;SDS011;12163;49.316;6.092;2022-11-15T06:48:14;8.27;;;2.85;;
23952;SDS011;12163;49.316;6.092;2022-11-15T06:50:41;9.63;;;3.50;;
23952;SDS011;12163;49.316;6.092;2022-11-15T06:53:08;7.90;;;3.15;;
23952;SDS011;12163;49.316;6.092;2022-11-15T06:55:35;8.15;;;3.45;;
23952;SDS011;12163;49.316;6.092;2022-11-15T06:58:01;8.85;;;3.33;;
23952;SDS011;12163;49.316;6.092;2022-11-15T07:00:28;16.67;;;4.30;;
23952;SDS011;12163;49.316;6.092;2022-11-15T07:02:55;8.38;;;4.13;;
23952;SDS011;12163;49.316;6.092;2022-11-15T07:05:21;10.23;;;4.50;;
23952;SDS011;12163;49.316;6.092;2022-11-15T07:07:51;16.10;;;7.70;;
23952;SDS011;12163;49.316;6.092;2022-11-15T07:12:50;18.98;;;7.50;;
23952;SDS011;12163;49.316;6.092;2022-11-15T07:15:21;18.50;;;7.03;;
23952;SDS011;12163;49.316;6.092;2022-11-15T07:17:49;12.73;;;6.65;;
23952;SDS011;12163;49.316;6.092;2022-11-15T07:20:17;15.65;;;8.95;;
23952;SDS011;12163;49.316;6.092;2022-11-15T07:22:44;20.05;;;8.95;;
23952;SDS011;12163;49.316;6.092;2022-11-15T07:25:11;21.48;;;9.63;;
23952;SDS011;12163;49.316;6.092;2022-11-15T07:27:38;18.17;;;9.57;;
23952;SDS011;12163;49.316;6.092;2022-11-15T07:30:05;16.58;;;8.98;;
23952;SDS011;12163;49.316;6.092;2022-11-15T07:32:32;13.35;;;8.25;;
23952;SDS011;12163;49.316;6.092;2022-11-15T07:34:58;17.15;;;8.45;;
23952;SDS011;12163;49.316;6.092;2022-11-15T07:37:25;21.42;;;8.95;;
23952;SDS011;12163;49.316;6.092;2022-11-15T07:39:51;15.20;;;7.90;;
23952;SDS011;12163;49.316;6.092;2022-11-15T07:42:18;21.25;;;9.77;;
23952;SDS011;12163;49.316;6.092;2022-11-15T07:45:03;16.58;;;9.25;;
23952;SDS011;12163;49.316;6.092;2022-11-15T07:47:31;24.35;;;9.75;;
23952;SDS011;12163;49.316;6.092;2022-11-15T07:49:57;22.27;;;9.63;;
23952;SDS011;12163;49.316;6.092;2022-11-15T07:52:24;17.02;;;9.88;;
23952;SDS011;12163;49.316;6.092;2022-11-15T07:54:50;27.58;;;9.75;;
23952;SDS011;12163;49.316;6.092;2022-11-15T07:57:17;27.05;;;10.00;;
23952;SDS011;12163;49.316;6.092;2022-11-15T07:59:44;25.40;;;9.82;;
23952;SDS011;12163;49.316;6.092;2022-11-15T08:02:10;19.50;;;9.40;;
23952;SDS011;12163;49.316;6.092;2022-11-15T08:04:38;23.48;;;9.48;;
23952;SDS011;12163;49.316;6.092;2022-11-15T08:07:04;28.98;;;10.15;;
23952;SDS011;12163;49.316;6.092;2022-11-15T08:09:31;29.48;;;10.07;;
23952;SDS011;12163;49.316;6.092;2022-11-15T08:11:57;30.15;;;10.90;;
23952;SDS011;12163;49.316;6.092;2022-11-15T08:14:24;26.25;;;11.45;;
23952;SDS011;12163;49.316;6.092;2022-11-15T08:16:51;28.88;;;11.90;;
23952;SDS011;12163;49.316;6.092;2022-11-15T08:19:18;23.88;;;12.00;;
23952;SDS011;12163;49.316;6.092;2022-11-15T08:21:45;27.60;;;11.20;;
23952;SDS011;12163;49.316;6.092;2022-11-15T08:24:11;33.17;;;12.25;;
23952;SDS011;12163;49.316;6.092;2022-11-15T08:26:38;33.38;;;10.95;;
23952;SDS011;12163;49.316;6.092;2022-11-15T08:29:06;32.70;;;11.65;;
23952;SDS011;12163;49.316;6.092;2022-11-15T08:31:35;25.20;;;10.43;;
23952;SDS011;12163;49.316;6.092;2022-11-15T08:34:03;18.70;;;10.32;;
23952;SDS011;12163;49.316;6.092;2022-11-15T08:36:30;21.92;;;9.77;;
23952;SDS011;12163;49.316;6.092;2022-11-15T08:39:10;20.95;;;10.25;;
23952;SDS011;12163;49.316;6.092;2022-11-15T08:41:38;22.17;;;10.95;;
23952;SDS011;12163;49.316;6.092;2022-11-15T08:44:05;23.60;;;10.57;;
23952;SDS011;12163;49.316;6.092;2022-11-15T08:46:32;23.80;;;10.63;;
23952;SDS011;12163;49.316;6.092;2022-11-15T08:48:58;26.42;;;10.50;;
23952;SDS011;12163;49.316;6.092;2022-11-15T08:51:25;25.80;;;11.32;;
23952;SDS011;12163;49.316;6.092;2022-11-15T08:53:51;22.20;;;10.90;;
23952;SDS011;12163;49.316;6.092;2022-11-15T08:56:18;29.42;;;11.02;;
23952;SDS011;12163;49.316;6.092;2022-11-15T08:58:45;20.15;;;10.45;;
23952;SDS011;12163;49.316;6.092;2022-11-15T09:01:17;27.23;;;11.25;;
23952;SDS011;12163;49.316;6.092;2022-11-15T09:03:45;27.83;;;10.95;;
23952;SDS011;12163;49.316;6.092;2022-11-15T09:06:11;28.90;;;11.38;;
23952;SDS011;12163;49.316;6.092;2022-11-15T09:08:38;29.15;;;11.50;;
23952;SDS011;12163;49.316;6.092;2022-11-15T09:11:13;36.08;;;11.43;;
23952;SDS011;12163;49.316;6.092;2022-11-15T09:13:42;27.73;;;11.60;;
23952;SDS011;12163;49.316;6.092;2022-11-15T09:16:09;22.30;;;11.63;;
23952;SDS011;12163;49.316;6.092;2022-11-15T09:18:37;21.25;;;10.95;;
23952;SDS011;12163;49.316;6.092;2022-11-15T09:21:04;21.80;;;10.13;;
23952;SDS011;12163;49.316;6.092;2022-11-15T09:23:31;22.60;;;10.20;;
23952;SDS011;12163;49.316;6.092;2022-11-15T09:25:58;26.27;;;12.45;;
23952;SDS011;12163;49.316;6.092;2022-11-15T09:28:27;24.17;;;11.48;;
23952;SDS011;12163;49.316;6.092;2022-11-15T09:31:01;20.92;;;11.95;;
23952;SDS011;12163;49.316;6.092;2022-11-15T09:33:29;20.55;;;10.25;;
23952;SDS011;12163;49.316;6.092;2022-11-15T09:36:04;19.88;;;9.45;;
23952;SDS011;12163;49.316;6.092;2022-11-15T09:38:34;18.98;;;9.63;;
23952;SDS011;12163;49.316;6.092;2022-11-15T09:49:19;16.42;;;9.05;;
23952;SDS011;12163;49.316;6.092;2022-11-15T09:51:48;19.27;;;9.63;;
23952;SDS011;12163;49.316;6.092;2022-11-15T09:57:04;19.10;;;10.45;;
23952;SDS011;12163;49.316;6.092;2022-11-15T09:59:55;24.55;;;10.18;;
23952;SDS011;12163;49.316;6.092;2022-11-15T10:03:02;25.50;;;10.80;;
23952;SDS011;12163;49.316;6.092;2022-11-15T10:05:37;17.58;;;10.60;;
23952;SDS011;12163;49.316;6.092;2022-11-15T10:08:18;18.33;;;10.35;;
23952;SDS011;12163;49.316;6.092;2022-11-15T10:10:48;25.10;;;11.13;;
23952;SDS011;12163;49.316;6.092;2022-11-15T10:13:42;22.38;;;10.73;;
23952;SDS011;12163;49.316;6.092;2022-11-15T10:25:46;20.45;;;9.45;;
23952;SDS011;12163;49.316;6.092;2022-11-15T10:27:57;16.63;;;8.38;;
23952;SDS011;12163;49.316;6.092;2022-11-15T10:30:34;20.45;;;9.55;;
23952;SDS011;12163;49.316;6.092;2022-11-15T10:41:14;17.55;;;8.43;;
23952;SDS011;12163;49.316;6.092;2022-11-15T10:43:43;14.25;;;8.10;;
23952;SDS011;12163;49.316;6.092;2022-11-15T10:46:18;13.02;;;7.00;;
23952;SDS011;12163;49.316;6.092;2022-11-15T10:49:14;11.15;;;6.28;;
23952;SDS011;12163;49.316;6.092;2022-11-15T10:54:34;14.10;;;5.68;;
23952;SDS011;12163;49.316;6.092;2022-11-15T10:59:49;10.40;;;5.65;;
23952;SDS011;12163;49.316;6.092;2022-11-15T11:05:00;10.90;;;5.35;;
23952;SDS011;12163;49.316;6.092;2022-11-15T11:07:29;13.75;;;5.63;;
23952;SDS011;12163;49.316;6.092;2022-11-15T11:10:19;7.55;;;4.88;;
23952;SDS011;12163;49.316;6.092;2022-11-15T11:16:00;9.35;;;4.50;;
23952;SDS011;12163;49.316;6.092;2022-11-15T11:24:18;6.65;;;3.88;;
23952;SDS011;12163;49.316;6.092;2022-11-15T11:49:09;11.45;;;3.40;;
23952;SDS011;12163;49.316;6.092;2022-11-15T11:52:26;5.72;;;3.20;;
23952;SDS011;12163;49.316;6.092;2022-11-15T11:54:46;6.00;;;3.40;;
23952;SDS011;12163;49.316;6.092;2022-11-15T11:57:16;5.65;;;3.55;;
23952;SDS011;12163;49.316;6.092;2022-11-15T12:00:12;12.90;;;3.80;;
23952;SDS011;12163;49.316;6.092;2022-11-15T12:03:09;6.13;;;3.22;;
23952;SDS011;12163;49.316;6.092;2022-11-15T12:05:39;5.03;;;3.30;;
23952;SDS011;12163;49.316;6.092;2022-11-15T12:11:03;8.85;;;3.10;;
23952;SDS011;12163;49.316;6.092;2022-11-15T12:13:31;6.30;;;3.50;;
23952;SDS011;12163;49.316;6.092;2022-11-15T12:18:35;6.88;;;3.20;;
23952;SDS011;12163;49.316;6.092;2022-11-15T12:21:05;9.77;;;3.30;;
23952;SDS011;12163;49.316;6.092;2022-11-15T12:23:43;4.75;;;2.70;;
23952;SDS011;12163;49.316;6.092;2022-11-15T12:26:31;7.65;;;2.97;;
23952;SDS011;12163;49.316;6.092;2022-11-15T12:29:15;4.45;;;2.65;;
23952;SDS011;12163;49.316;6.092;2022-11-15T12:31:48;5.70;;;2.92;;
23952;SDS011;12163;49.316;6.092;2022-11-15T12:36:46;5.55;;;2.80;;
23952;SDS011;12163;49.316;6.092;2022-11-15T12:39:14;5.15;;;2.95;;
23952;SDS011;12163;49.316;6.092;2022-11-15T12:41:42;4.25;;;2.92;;
23952;SDS011;12163;49.316;6.092;2022-11-15T12:44:11;6.57;;;2.92;;
23952;SDS011;12163;49.316;6.092;2022-11-15T12:47:00;3.63;;;2.55;;
23952;SDS011;12163;49.316;6.092;2022-11-15T12:52:04;7.20;;;3.15;;
23952;SDS011;12163;49.316;6.092;2022-11-15T13:02:21;7.63;;;3.08;;
23952;SDS011;12163;49.316;6.092;2022-11-15T13:04:50;5.00;;;2.88;;
23952;SDS011;12163;49.316;6.092;2022-11-15T13:30:36;4.15;;;2.92;;
23952;SDS011;12163;49.316;6.092;2022-11-15T13:33:13;5.53;;;2.95;;
23952;SDS011;12163;49.316;6.092;2022-11-15T13:35:45;6.88;;;2.83;;
23952;SDS011;12163;49.316;6.092;2022-11-15T13:38:18;5.65;;;2.72;;
23952;SDS011;12163;49.316;6.092;2022-11-15T13:40:57;4.82;;;2.70;;
23952;SDS011;12163;49.316;6.092;2022-11-15T13:48:39;9.80;;;3.00;;
23952;SDS011;12163;49.316;6.092;2022-11-15T13:51:53;4.20;;;2.67;;
23952;SDS011;12163;49.316;6.092;2022-11-15T13:54:19;5.60;;;3.10;;
23952;SDS011;12163;49.316;6.092;2022-11-15T13:59:26;6.50;;;2.90;;
23952;SDS011;12163;49.316;6.092;2022-11-15T14:02:20;4.90;;;2.80;;
23952;SDS011;12163;49.316;6.092;2022-11-15T14:05:00;10.27;;;2.95;;
23952;SDS011;12163;49.316;6.092;2022-11-15T14:07:30;8.55;;;3.00;;
23952;SDS011;12163;49.316;6.092;2022-11-15T14:09:58;3.50;;;2.30;;
23952;SDS011;12163;49.316;6.092;2022-11-15T14:12:51;8.70;;;2.88;;
23952;SDS011;12163;49.316;6.092;2022-11-15T14:15:35;5.90;;;2.88;;
23952;SDS011;12163;49.316;6.092;2022-11-15T14:18:03;4.47;;;2.53;;
23952;SDS011;12163;49.316;6.092;2022-11-15T14:20:32;8.45;;;2.75;;
23952;SDS011;12163;49.316;6.092;2022-11-15T14:23:23;8.05;;;2.50;;
23952;SDS011;12163;49.316;6.092;2022-11-15T14:25:58;6.90;;;2.30;;
23952;SDS011;12163;49.316;6.092;2022-11-15T14:30:53;6.75;;;2.28;;
23952;SDS011;12163;49.316;6.092;2022-11-15T14:33:34;4.80;;;2.10;;
23952;SDS011;12163;49.316;6.092;2022-11-15T14:36:23;3.40;;;2.13;;
23952;SDS011;12163;49.316;6.092;2022-11-15T14:38:49;10.75;;;2.83;;
23952;SDS011;12163;49.316;6.092;2022-11-15T14:41:22;6.78;;;2.65;;
23952;SDS011;12163;49.316;6.092;2022-11-15T14:43:51;5.63;;;3.10;;
23952;SDS011;12163;49.316;6.092;2022-11-15T14:46:18;6.30;;;2.70;;
23952;SDS011;12163;49.316;6.092;2022-11-15T14:48:45;6.20;;;3.33;;
23952;SDS011;12163;49.316;6.092;2022-11-15T14:51:16;4.43;;;2.55;;
23952;SDS011;12163;49.316;6.092;2022-11-15T14:53:44;9.93;;;2.55;;
23952;SDS011;12163;49.316;6.092;2022-11-15T14:56:12;5.55;;;3.00;;
23952;SDS011;12163;49.316;6.092;2022-11-15T14:58:39;5.90;;;2.85;;
23952;SDS011;12163;49.316;6.092;2022-11-15T15:01:14;6.72;;;2.83;;
23952;SDS011;12163;49.316;6.092;2022-11-15T15:03:50;6.03;;;2.42;;
23952;SDS011;12163;49.316;6.092;2022-11-15T15:06:18;7.43;;;2.75;;
23952;SDS011;12163;49.316;6.092;2022-11-15T15:08:45;4.60;;;3.10;;
23952;SDS011;12163;49.316;6.092;2022-11-15T15:11:16;4.40;;;2.30;;
23952;SDS011;12163;49.316;6.092;2022-11-15T15:13:47;6.72;;;3.15;;
23952;SDS011;12163;49.316;6.092;2022-11-15T15:16:14;6.05;;;2.60;;
23952;SDS011;12163;49.316;6.092;2022-11-15T15:18:40;9.57;;;2.72;;
23952;SDS011;12163;49.316;6.092;2022-11-15T15:21:23;5.15;;;2.72;;
23952;SDS011;12163;49.316;6.092;2022-11-15T15:23:51;10.30;;;2.40;;
23952;SDS011;12163;49.316;6.092;2022-11-15T15:26:22;2.83;;;2.33;;
23952;SDS011;12163;49.316;6.092;2022-11-15T15:28:51;8.65;;;2.60;;
23952;SDS011;12163;49.316;6.092;2022-11-15T15:31:18;6.97;;;2.40;;
23952;SDS011;12163;49.316;6.092;2022-11-15T15:33:45;7.95;;;2.80;;
23952;SDS011;12163;49.316;6.092;2022-11-15T15:36:12;6.03;;;3.33;;
23952;SDS011;12163;49.316;6.092;2022-11-15T15:38:40;7.30;;;2.90;;
23952;SDS011;12163;49.316;6.092;2022-11-15T15:41:14;4.32;;;2.45;;
23952;SDS011;12163;49.316;6.092;2022-11-15T15:43:42;7.40;;;2.72;;
23952;SDS011;12163;49.316;6.092;2022-11-15T15:46:12;6.47;;;2.90;;
23952;SDS011;12163;49.316;6.092;2022-11-15T15:48:41;9.00;;;3.50;;
23952;SDS011;12163;49.316;6.092;2022-11-15T15:51:08;7.13;;;3.35;;
23952;SDS011;12163;49.316;6.092;2022-11-15T15:53:45;6.32;;;3.80;;
23952;SDS011;12163;49.316;6.092;2022-11-15T15:56:12;7.43;;;4.15;;
23952;SDS011;12163;49.316;6.092;2022-11-15T15:58:39;8.93;;;4.30;;
23952;SDS011;12163;49.316;6.092;2022-11-15T16:01:05;9.80;;;3.90;;
23952;SDS011;12163;49.316;6.092;2022-11-15T16:03:32;15.27;;;4.50;;
23952;SDS011;12163;49.316;6.092;2022-11-15T16:05:59;9.98;;;4.18;;
23952;SDS011;12163;49.316;6.092;2022-11-15T16:08:25;8.10;;;4.45;;
23952;SDS011;12163;49.316;6.092;2022-11-15T16:11:15;9.40;;;4.65;;
23952;SDS011;12163;49.316;6.092;2022-11-15T16:13:42;11.57;;;5.80;;
23952;SDS011;12163;49.316;6.092;2022-11-15T16:16:09;11.23;;;5.43;;
23952;SDS011;12163;49.316;6.092;2022-11-15T16:18:39;12.48;;;4.80;;
23952;SDS011;12163;49.316;6.092;2022-11-15T16:21:07;13.20;;;5.20;;
23952;SDS011;12163;49.316;6.092;2022-11-15T16:23:34;13.60;;;5.05;;
23952;SDS011;12163;49.316;6.092;2022-11-15T16:26:01;13.57;;;5.00;;
23952;SDS011;12163;49.316;6.092;2022-11-15T16:28:30;10.95;;;4.97;;
23952;SDS011;12163;49.316;6.092;2022-11-15T16:31:03;11.95;;;5.18;;
23952;SDS011;12163;49.316;6.092;2022-11-15T16:33:37;10.23;;;5.00;;
23952;SDS011;12163;49.316;6.092;2022-11-15T16:36:04;17.42;;;5.85;;
23952;SDS011;12163;49.316;6.092;2022-11-15T16:38:32;18.75;;;4.93;;
23952;SDS011;12163;49.316;6.092;2022-11-15T16:41:00;8.18;;;4.45;;
23952;SDS011;12163;49.316;6.092;2022-11-15T16:43:27;11.10;;;5.00;;
23952;SDS011;12163;49.316;6.092;2022-11-15T16:45:53;7.22;;;4.70;;
23952;SDS011;12163;49.316;6.092;2022-11-15T16:48:24;7.30;;;4.95;;
23952;SDS011;12163;49.316;6.092;2022-11-15T16:53:23;8.50;;;5.28;;
23952;SDS011;12163;49.316;6.092;2022-11-15T16:55:50;8.50;;;5.45;;
23952;SDS011;12163;49.316;6.092;2022-11-15T16:58:16;9.60;;;5.35;;
23952;SDS011;12163;49.316;6.092;2022-11-15T17:00:43;7.90;;;4.78;;
23952;SDS011;12163;49.316;6.092;2022-11-15T17:03:10;9.02;;;5.20;;
23952;SDS011;12163;49.316;6.092;2022-11-15T17:05:37;15.80;;;5.68;;
23952;SDS011;12163;49.316;6.092;2022-11-15T17:08:03;6.85;;;4.80;;
23952;SDS011;12163;49.316;6.092;2022-11-15T17:10:30;15.95;;;6.90;;
23952;SDS011;12163;49.316;6.092;2022-11-15T17:12:56;7.55;;;4.43;;
23952;SDS011;12163;49.316;6.092;2022-11-15T17:15:23;16.15;;;7.75;;
23952;SDS011;12163;49.316;6.092;2022-11-15T17:17:53;16.15;;;6.90;;
23952;SDS011;12163;49.316;6.092;2022-11-15T17:20:21;12.80;;;6.10;;
23952;SDS011;12163;49.316;6.092;2022-11-15T17:22:49;14.43;;;5.40;;
23952;SDS011;12163;49.316;6.092;2022-11-15T17:25:17;8.38;;;4.60;;
23952;SDS011;12163;49.316;6.092;2022-11-15T17:27:45;8.40;;;5.07;;
23952;SDS011;12163;49.316;6.092;2022-11-15T17:30:12;11.02;;;5.65;;
23952;SDS011;12163;49.316;6.092;2022-11-15T17:32:41;14.55;;;5.07;;
23952;SDS011;12163;49.316;6.092;2022-11-15T17:35:08;10.30;;;5.63;;
23952;SDS011;12163;49.316;6.092;2022-11-15T17:37:41;7.00;;;5.18;;
23952;SDS011;12163;49.316;6.092;2022-11-15T17:40:08;8.70;;;5.20;;
23952;SDS011;12163;49.316;6.092;2022-11-15T17:42:35;10.63;;;5.18;;
23952;SDS011;12163;49.316;6.092;2022-11-15T17:45:02;7.97;;;4.90;;
23952;SDS011;12163;49.316;6.092;2022-11-15T17:47:35;10.98;;;5.20;;
23952;SDS011;12163;49.316;6.092;2022-11-15T17:50:02;13.23;;;5.45;;
23952;SDS011;12163;49.316;6.092;2022-11-15T17:52:29;15.65;;;6.07;;
23952;SDS011;12163;49.316;6.092;2022-11-15T17:54:56;11.88;;;5.82;;